sensor_id;sensor_type;location;lat;lon;timestamp;P1;durP1;ratioP1;P2;durP2;ratioP2
8893;SDS011;4483;48.622;9.230;2023-07-30T00:01:29;2.45;;;2.22;;
8893;SDS011;4483;48.622;9.230;2023-07-30T00:03:56;2.45;;;2.25;;
8893;SDS011;4483;48.622;9.230;2023-07-30T00:06:23;3.95;;;2.42;;
8893;SDS011;4483;48.622;9.230;2023-07-30T00:08:49;2.60;;;2.40;;
8893;SDS011;4483;48.622;9.230;2023-07-30T00:11:16;2.60;;;2.40;;
8893;SDS011;4483;48.622;9.230;2023-07-30T00:13:43;2.90;;;2.70;;
8893;SDS011;4483;48.622;9.230;2023-07-30T00:16:11;2.28;;;2.17;;
8893;SDS011;4483;48.622;9.230;2023-07-30T00:18:37;3.45;;;2.65;;
8893;SDS011;4483;48.622;9.230;2023-07-30T00:21:04;3.15;;;2.85;;
8893;SDS011;4483;48.622;9.230;2023-07-30T00:23:31;3.38;;;2.60;;
8893;SDS011;4483;48.622;9.230;2023-07-30T00:25:57;4.72;;;2.30;;
8893;SDS011;4483;48.622;9.230;2023-07-30T00:28:24;3.55;;;3.05;;
8893;SDS011;4483;48.622;9.230;2023-07-30T00:30:50;4.35;;;2.72;;
8893;SDS011;4483;48.622;9.230;2023-07-30T00:33:18;2.65;;;2.47;;
8893;SDS011;4483;48.622;9.230;2023-07-30T00:35:45;2.58;;;2.25;;
8893;SDS011;4483;48.622;9.230;2023-07-30T00:38:12;3.63;;;2.63;;
8893;SDS011;4483;48.622;9.230;2023-07-30T00:40:39;3.85;;;2.90;;
8893;SDS011;4483;48.622;9.230;2023-07-30T00:43:06;2.65;;;2.53;;
8893;SDS011;4483;48.622;9.230;2023-07-30T00:45:33;2.50;;;2.40;;
8893;SDS011;4483;48.622;9.230;2023-07-30T00:48:01;3.70;;;2.58;;
8893;SDS011;4483;48.622;9.230;2023-07-30T00:50:29;6.32;;;2.40;;
8893;SDS011;4483;48.622;9.230;2023-07-30T00:52:56;2.83;;;2.60;;
8893;SDS011;4483;48.622;9.230;2023-07-30T00:55:23;6.07;;;2.80;;
8893;SDS011;4483;48.622;9.230;2023-07-30T00:57:50;5.05;;;2.65;;
8893;SDS011;4483;48.622;9.230;2023-07-30T01:00:17;2.75;;;2.45;;
8893;SDS011;4483;48.622;9.230;2023-07-30T01:02:44;3.75;;;2.60;;
8893;SDS011;4483;48.622;9.230;2023-07-30T01:05:11;3.65;;;2.45;;
8893;SDS011;4483;48.622;9.230;2023-07-30T01:07:39;2.55;;;2.25;;
8893;SDS011;4483;48.622;9.230;2023-07-30T01:10:06;3.38;;;2.40;;
8893;SDS011;4483;48.622;9.230;2023-07-30T01:12:33;3.80;;;2.22;;
8893;SDS011;4483;48.622;9.230;2023-07-30T01:15:02;4.22;;;2.88;;
8893;SDS011;4483;48.622;9.230;2023-07-30T01:17:30;3.60;;;2.50;;
8893;SDS011;4483;48.622;9.230;2023-07-30T01:19:57;2.50;;;2.40;;
8893;SDS011;4483;48.622;9.230;2023-07-30T01:22:25;2.95;;;2.67;;
8893;SDS011;4483;48.622;9.230;2023-07-30T01:24:51;6.75;;;2.63;;
8893;SDS011;4483;48.622;9.230;2023-07-30T01:27:19;3.90;;;2.60;;
8893;SDS011;4483;48.622;9.230;2023-07-30T01:29:51;4.35;;;2.22;;
8893;SDS011;4483;48.622;9.230;2023-07-30T01:32:22;2.42;;;2.13;;
8893;SDS011;4483;48.622;9.230;2023-07-30T01:34:52;2.42;;;2.20;;
8893;SDS011;4483;48.622;9.230;2023-07-30T01:37:19;2.17;;;1.90;;
8893;SDS011;4483;48.622;9.230;2023-07-30T01:39:48;4.00;;;2.35;;
8893;SDS011;4483;48.622;9.230;2023-07-30T01:42:16;3.53;;;2.38;;
8893;SDS011;4483;48.622;9.230;2023-07-30T01:44:42;4.07;;;2.20;;
8893;SDS011;4483;48.622;9.230;2023-07-30T01:47:09;2.55;;;2.35;;
8893;SDS011;4483;48.622;9.230;2023-07-30T01:49:36;3.13;;;2.20;;
8893;SDS011;4483;48.622;9.230;2023-07-30T01:52:03;2.83;;;2.40;;
8893;SDS011;4483;48.622;9.230;2023-07-30T01:54:30;2.72;;;2.53;;
8893;SDS011;4483;48.622;9.230;2023-07-30T01:56:59;4.18;;;2.50;;
8893;SDS011;4483;48.622;9.230;2023-07-30T01:59:26;2.83;;;2.60;;
8893;SDS011;4483;48.622;9.230;2023-07-30T02:01:53;4.35;;;2.00;;
8893;SDS011;4483;48.622;9.230;2023-07-30T02:04:19;3.47;;;2.60;;
8893;SDS011;4483;48.622;9.230;2023-07-30T02:06:46;2.97;;;2.10;;
8893;SDS011;4483;48.622;9.230;2023-07-30T02:09:12;3.75;;;2.95;;
8893;SDS011;4483;48.622;9.230;2023-07-30T02:11:39;3.47;;;2.08;;
8893;SDS011;4483;48.622;9.230;2023-07-30T02:14:08;2.33;;;2.13;;
8893;SDS011;4483;48.622;9.230;2023-07-30T02:16:35;6.95;;;2.13;;
8893;SDS011;4483;48.622;9.230;2023-07-30T02:19:01;2.67;;;2.15;;
8893;SDS011;4483;48.622;9.230;2023-07-30T02:21:28;2.50;;;2.38;;
8893;SDS011;4483;48.622;9.230;2023-07-30T02:23:57;4.93;;;2.13;;
8893;SDS011;4483;48.622;9.230;2023-07-30T02:26:24;2.55;;;2.40;;
8893;SDS011;4483;48.622;9.230;2023-07-30T02:28:51;5.22;;;2.30;;
8893;SDS011;4483;48.622;9.230;2023-07-30T02:31:19;5.20;;;2.10;;
8893;SDS011;4483;48.622;9.230;2023-07-30T02:33:46;2.25;;;2.13;;
8893;SDS011;4483;48.622;9.230;2023-07-30T02:36:12;3.80;;;2.50;;
8893;SDS011;4483;48.622;9.230;2023-07-30T02:38:39;2.20;;;2.03;;
8893;SDS011;4483;48.622;9.230;2023-07-30T02:41:05;4.57;;;2.10;;
8893;SDS011;4483;48.622;9.230;2023-07-30T02:43:32;3.60;;;2.30;;
8893;SDS011;4483;48.622;9.230;2023-07-30T02:45:59;2.08;;;1.98;;
8893;SDS011;4483;48.622;9.230;2023-07-30T02:48:27;2.78;;;2.20;;
8893;SDS011;4483;48.622;9.230;2023-07-30T02:50:53;2.30;;;2.17;;
8893;SDS011;4483;48.622;9.230;2023-07-30T02:53:20;3.25;;;2.47;;
8893;SDS011;4483;48.622;9.230;2023-07-30T02:55:46;2.58;;;2.10;;
8893;SDS011;4483;48.622;9.230;2023-07-30T02:58:13;3.20;;;2.22;;
8893;SDS011;4483;48.622;9.230;2023-07-30T03:00:40;2.50;;;2.30;;
8893;SDS011;4483;48.622;9.230;2023-07-30T03:03:07;4.00;;;2.38;;
8893;SDS011;4483;48.622;9.230;2023-07-30T03:05:35;8.52;;;2.40;;
8893;SDS011;4483;48.622;9.230;2023-07-30T03:08:01;2.22;;;2.03;;
8893;SDS011;4483;48.622;9.230;2023-07-30T03:10:28;4.82;;;2.17;;
8893;SDS011;4483;48.622;9.230;2023-07-30T03:12:55;2.65;;;2.45;;
8893;SDS011;4483;48.622;9.230;2023-07-30T03:15:21;2.63;;;2.22;;
8893;SDS011;4483;48.622;9.230;2023-07-30T03:17:48;3.90;;;2.10;;
8893;SDS011;4483;48.622;9.230;2023-07-30T03:20:15;2.53;;;2.22;;
8893;SDS011;4483;48.622;9.230;2023-07-30T03:22:43;1.95;;;1.85;;
8893;SDS011;4483;48.622;9.230;2023-07-30T03:25:09;2.53;;;2.33;;
8893;SDS011;4483;48.622;9.230;2023-07-30T03:27:36;5.05;;;2.10;;
8893;SDS011;4483;48.622;9.230;2023-07-30T03:30:03;3.00;;;2.20;;
8893;SDS011;4483;48.622;9.230;2023-07-30T03:32:30;2.08;;;1.70;;
8893;SDS011;4483;48.622;9.230;2023-07-30T03:34:57;5.30;;;2.40;;
8893;SDS011;4483;48.622;9.230;2023-07-30T03:37:24;3.90;;;2.50;;
8893;SDS011;4483;48.622;9.230;2023-07-30T03:39:51;2.38;;;2.00;;
8893;SDS011;4483;48.622;9.230;2023-07-30T03:42:18;1.92;;;1.83;;
8893;SDS011;4483;48.622;9.230;2023-07-30T03:44:45;11.13;;;2.30;;
8893;SDS011;4483;48.622;9.230;2023-07-30T03:47:12;2.05;;;1.90;;
8893;SDS011;4483;48.622;9.230;2023-07-30T03:49:38;2.20;;;2.10;;
8893;SDS011;4483;48.622;9.230;2023-07-30T03:52:05;3.50;;;2.53;;
8893;SDS011;4483;48.622;9.230;2023-07-30T03:54:32;2.10;;;2.00;;
8893;SDS011;4483;48.622;9.230;2023-07-30T03:57:00;2.00;;;1.90;;
8893;SDS011;4483;48.622;9.230;2023-07-30T03:59:27;3.97;;;2.08;;
8893;SDS011;4483;48.622;9.230;2023-07-30T04:01:54;2.38;;;2.20;;
8893;SDS011;4483;48.622;9.230;2023-07-30T04:04:21;2.20;;;2.10;;
8893;SDS011;4483;48.622;9.230;2023-07-30T04:06:47;3.60;;;2.30;;
8893;SDS011;4483;48.622;9.230;2023-07-30T04:09:14;5.55;;;1.90;;
8893;SDS011;4483;48.622;9.230;2023-07-30T04:11:40;4.53;;;2.42;;
8893;SDS011;4483;48.622;9.230;2023-07-30T04:14:08;3.00;;;2.08;;
8893;SDS011;4483;48.622;9.230;2023-07-30T04:16:35;2.30;;;2.10;;
8893;SDS011;4483;48.622;9.230;2023-07-30T04:19:01;3.13;;;2.03;;
8893;SDS011;4483;48.622;9.230;2023-07-30T04:21:28;2.55;;;2.10;;
8893;SDS011;4483;48.622;9.230;2023-07-30T04:23:55;4.30;;;2.00;;
8893;SDS011;4483;48.622;9.230;2023-07-30T04:26:21;6.53;;;2.22;;
8893;SDS011;4483;48.622;9.230;2023-07-30T04:28:48;3.22;;;2.22;;
8893;SDS011;4483;48.622;9.230;2023-07-30T04:31:16;5.15;;;2.17;;
8893;SDS011;4483;48.622;9.230;2023-07-30T04:33:42;2.20;;;2.00;;
8893;SDS011;4483;48.622;9.230;2023-07-30T04:36:09;7.20;;;2.05;;
8893;SDS011;4483;48.622;9.230;2023-07-30T04:38:36;2.67;;;2.53;;
8893;SDS011;4483;48.622;9.230;2023-07-30T04:41:02;7.00;;;2.15;;
8893;SDS011;4483;48.622;9.230;2023-07-30T04:43:29;2.35;;;2.15;;
8893;SDS011;4483;48.622;9.230;2023-07-30T04:45:56;3.78;;;2.10;;
8893;SDS011;4483;48.622;9.230;2023-07-30T04:48:24;5.95;;;2.13;;
8893;SDS011;4483;48.622;9.230;2023-07-30T04:50:50;4.63;;;1.92;;
8893;SDS011;4483;48.622;9.230;2023-07-30T04:53:17;4.68;;;2.00;;
8893;SDS011;4483;48.622;9.230;2023-07-30T04:55:45;2.13;;;1.83;;
8893;SDS011;4483;48.622;9.230;2023-07-30T04:58:12;5.00;;;2.47;;
8893;SDS011;4483;48.622;9.230;2023-07-30T05:00:38;4.38;;;2.42;;
8893;SDS011;4483;48.622;9.230;2023-07-30T05:03:05;2.42;;;1.90;;
8893;SDS011;4483;48.622;9.230;2023-07-30T05:05:33;2.33;;;1.92;;
8893;SDS011;4483;48.622;9.230;2023-07-30T05:08:00;3.33;;;2.15;;
8893;SDS011;4483;48.622;9.230;2023-07-30T05:10:26;2.35;;;2.13;;
8893;SDS011;4483;48.622;9.230;2023-07-30T05:12:53;3.22;;;2.20;;
8893;SDS011;4483;48.622;9.230;2023-07-30T05:15:19;5.40;;;2.05;;
8893;SDS011;4483;48.622;9.230;2023-07-30T05:17:46;6.88;;;2.10;;
8893;SDS011;4483;48.622;9.230;2023-07-30T05:20:13;5.10;;;2.20;;
8893;SDS011;4483;48.622;9.230;2023-07-30T05:22:41;4.10;;;1.95;;
8893;SDS011;4483;48.622;9.230;2023-07-30T05:25:08;2.20;;;2.00;;
8893;SDS011;4483;48.622;9.230;2023-07-30T05:27:34;2.53;;;2.03;;
8893;SDS011;4483;48.622;9.230;2023-07-30T05:30:01;4.68;;;2.17;;
8893;SDS011;4483;48.622;9.230;2023-07-30T05:32:28;2.25;;;2.03;;
8893;SDS011;4483;48.622;9.230;2023-07-30T05:34:55;2.97;;;2.30;;
8893;SDS011;4483;48.622;9.230;2023-07-30T05:37:22;2.30;;;2.20;;
8893;SDS011;4483;48.622;9.230;2023-07-30T05:39:50;6.82;;;2.30;;
8893;SDS011;4483;48.622;9.230;2023-07-30T05:42:17;2.63;;;2.15;;
8893;SDS011;4483;48.622;9.230;2023-07-30T05:44:43;3.30;;;2.33;;
8893;SDS011;4483;48.622;9.230;2023-07-30T05:47:10;2.38;;;2.17;;
8893;SDS011;4483;48.622;9.230;2023-07-30T05:49:36;6.50;;;2.22;;
8893;SDS011;4483;48.622;9.230;2023-07-30T05:52:03;4.40;;;2.17;;
8893;SDS011;4483;48.622;9.230;2023-07-30T05:54:31;7.32;;;2.28;;
8893;SDS011;4483;48.622;9.230;2023-07-30T05:56:59;3.53;;;2.10;;
8893;SDS011;4483;48.622;9.230;2023-07-30T05:59:26;3.53;;;2.20;;
8893;SDS011;4483;48.622;9.230;2023-07-30T06:01:52;2.63;;;2.15;;
8893;SDS011;4483;48.622;9.230;2023-07-30T06:04:19;2.28;;;2.10;;
8893;SDS011;4483;48.622;9.230;2023-07-30T06:06:45;3.40;;;2.20;;
8893;SDS011;4483;48.622;9.230;2023-07-30T06:09:12;2.13;;;2.00;;
8893;SDS011;4483;48.622;9.230;2023-07-30T06:11:39;3.63;;;2.05;;
8893;SDS011;4483;48.622;9.230;2023-07-30T06:14:07;2.33;;;2.13;;
8893;SDS011;4483;48.622;9.230;2023-07-30T06:16:33;2.40;;;2.20;;
8893;SDS011;4483;48.622;9.230;2023-07-30T06:19:00;2.58;;;2.25;;
8893;SDS011;4483;48.622;9.230;2023-07-30T06:21:27;3.13;;;2.05;;
8893;SDS011;4483;48.622;9.230;2023-07-30T06:23:53;2.00;;;1.88;;
8893;SDS011;4483;48.622;9.230;2023-07-30T06:26:20;4.15;;;2.17;;
8893;SDS011;4483;48.622;9.230;2023-07-30T06:28:46;1.95;;;1.85;;
8893;SDS011;4483;48.622;9.230;2023-07-30T06:31:14;2.20;;;2.00;;
8893;SDS011;4483;48.622;9.230;2023-07-30T06:33:41;2.25;;;2.05;;
8893;SDS011;4483;48.622;9.230;2023-07-30T06:36:08;4.15;;;1.83;;
8893;SDS011;4483;48.622;9.230;2023-07-30T06:38:34;2.00;;;1.90;;
8893;SDS011;4483;48.622;9.230;2023-07-30T06:41:01;2.15;;;1.60;;
8893;SDS011;4483;48.622;9.230;2023-07-30T06:43:28;4.00;;;1.90;;
8893;SDS011;4483;48.622;9.230;2023-07-30T06:45:55;3.85;;;1.70;;
8893;SDS011;4483;48.622;9.230;2023-07-30T06:48:23;3.33;;;1.90;;
8893;SDS011;4483;48.622;9.230;2023-07-30T06:50:50;4.45;;;2.00;;
8893;SDS011;4483;48.622;9.230;2023-07-30T06:53:16;6.28;;;3.17;;
8893;SDS011;4483;48.622;9.230;2023-07-30T06:55:44;2.17;;;1.65;;
8893;SDS011;4483;48.622;9.230;2023-07-30T06:58:11;1.77;;;1.60;;
8893;SDS011;4483;48.622;9.230;2023-07-30T07:00:39;3.47;;;1.60;;
8893;SDS011;4483;48.622;9.230;2023-07-30T07:03:05;1.85;;;1.65;;
8893;SDS011;4483;48.622;9.230;2023-07-30T07:05:35;5.15;;;1.65;;
8893;SDS011;4483;48.622;9.230;2023-07-30T07:08:01;4.50;;;1.58;;
8893;SDS011;4483;48.622;9.230;2023-07-30T07:10:28;8.77;;;2.03;;
8893;SDS011;4483;48.622;9.230;2023-07-30T07:12:55;2.15;;;1.52;;
8893;SDS011;4483;48.622;9.230;2023-07-30T07:15:21;1.85;;;1.75;;
8893;SDS011;4483;48.622;9.230;2023-07-30T07:17:48;1.90;;;1.80;;
8893;SDS011;4483;48.622;9.230;2023-07-30T07:20:15;3.15;;;1.70;;
8893;SDS011;4483;48.622;9.230;2023-07-30T07:22:45;8.02;;;2.28;;
8893;SDS011;4483;48.622;9.230;2023-07-30T07:25:12;1.90;;;1.80;;
8893;SDS011;4483;48.622;9.230;2023-07-30T07:27:38;1.90;;;1.80;;
8893;SDS011;4483;48.622;9.230;2023-07-30T07:30:06;1.80;;;1.70;;
8893;SDS011;4483;48.622;9.230;2023-07-30T07:32:35;2.22;;;1.63;;
8893;SDS011;4483;48.622;9.230;2023-07-30T07:35:07;1.52;;;1.42;;
8893;SDS011;4483;48.622;9.230;2023-07-30T07:37:34;1.55;;;1.40;;
8893;SDS011;4483;48.622;9.230;2023-07-30T07:40:03;1.35;;;1.25;;
8893;SDS011;4483;48.622;9.230;2023-07-30T07:42:31;3.05;;;1.40;;
8893;SDS011;4483;48.622;9.230;2023-07-30T07:44:57;1.60;;;1.50;;
8893;SDS011;4483;48.622;9.230;2023-07-30T07:47:24;4.45;;;1.58;;
8893;SDS011;4483;48.622;9.230;2023-07-30T07:49:51;2.10;;;1.55;;
8893;SDS011;4483;48.622;9.230;2023-07-30T07:52:17;3.20;;;1.40;;
8893;SDS011;4483;48.622;9.230;2023-07-30T07:54:44;1.50;;;1.40;;
8893;SDS011;4483;48.622;9.230;2023-07-30T07:57:12;4.20;;;1.35;;
8893;SDS011;4483;48.622;9.230;2023-07-30T07:59:39;1.50;;;1.33;;
8893;SDS011;4483;48.622;9.230;2023-07-30T08:02:06;3.10;;;1.50;;
8893;SDS011;4483;48.622;9.230;2023-07-30T08:04:33;1.65;;;1.30;;
8893;SDS011;4483;48.622;9.230;2023-07-30T08:06:59;2.55;;;1.40;;
8893;SDS011;4483;48.622;9.230;2023-07-30T08:09:28;4.45;;;1.50;;
8893;SDS011;4483;48.622;9.230;2023-07-30T08:11:55;1.48;;;1.30;;
8893;SDS011;4483;48.622;9.230;2023-07-30T08:14:23;3.88;;;1.38;;
8893;SDS011;4483;48.622;9.230;2023-07-30T08:16:49;1.65;;;1.55;;
8893;SDS011;4483;48.622;9.230;2023-07-30T08:19:16;1.38;;;1.30;;
8893;SDS011;4483;48.622;9.230;2023-07-30T08:21:43;2.13;;;1.42;;
8893;SDS011;4483;48.622;9.230;2023-07-30T08:24:09;1.58;;;1.23;;
8893;SDS011;4483;48.622;9.230;2023-07-30T08:26:36;2.30;;;1.27;;
8893;SDS011;4483;48.622;9.230;2023-07-30T08:29:03;1.20;;;1.20;;
8893;SDS011;4483;48.622;9.230;2023-07-30T08:31:32;1.17;;;1.17;;
8893;SDS011;4483;48.622;9.230;2023-07-30T08:33:59;1.25;;;1.25;;
8893;SDS011;4483;48.622;9.230;2023-07-30T08:36:25;2.08;;;1.35;;
8893;SDS011;4483;48.622;9.230;2023-07-30T08:38:52;1.70;;;1.60;;
8893;SDS011;4483;48.622;9.230;2023-07-30T08:41:19;1.67;;;1.38;;
8893;SDS011;4483;48.622;9.230;2023-07-30T08:43:45;1.27;;;1.20;;
8893;SDS011;4483;48.622;9.230;2023-07-30T08:46:14;2.33;;;1.30;;
8893;SDS011;4483;48.622;9.230;2023-07-30T08:48:42;3.10;;;1.23;;
8893;SDS011;4483;48.622;9.230;2023-07-30T08:51:08;1.25;;;1.15;;
8893;SDS011;4483;48.622;9.230;2023-07-30T08:53:37;1.15;;;1.00;;
8893;SDS011;4483;48.622;9.230;2023-07-30T08:56:04;1.20;;;1.20;;
8893;SDS011;4483;48.622;9.230;2023-07-30T08:58:31;1.17;;;1.10;;
8893;SDS011;4483;48.622;9.230;2023-07-30T09:01:01;1.30;;;1.20;;
8893;SDS011;4483;48.622;9.230;2023-07-30T09:03:34;1.40;;;1.30;;
8893;SDS011;4483;48.622;9.230;2023-07-30T09:06:05;1.55;;;1.05;;
8893;SDS011;4483;48.622;9.230;2023-07-30T09:08:32;1.30;;;1.20;;
8893;SDS011;4483;48.622;9.230;2023-07-30T09:11:07;1.45;;;1.17;;
8893;SDS011;4483;48.622;9.230;2023-07-30T09:13:36;1.10;;;1.10;;
8893;SDS011;4483;48.622;9.230;2023-07-30T09:16:08;1.15;;;1.08;;
8893;SDS011;4483;48.622;9.230;2023-07-30T09:18:38;1.38;;;1.38;;
8893;SDS011;4483;48.622;9.230;2023-07-30T09:21:07;1.63;;;1.50;;
8893;SDS011;4483;48.622;9.230;2023-07-30T09:23:39;2.22;;;1.50;;
8893;SDS011;4483;48.622;9.230;2023-07-30T09:26:06;1.38;;;1.30;;
8893;SDS011;4483;48.622;9.230;2023-07-30T09:28:33;2.15;;;1.20;;
8893;SDS011;4483;48.622;9.230;2023-07-30T09:31:00;1.15;;;1.10;;
8893;SDS011;4483;48.622;9.230;2023-07-30T09:33:30;1.30;;;1.30;;
8893;SDS011;4483;48.622;9.230;2023-07-30T09:35:57;1.38;;;1.30;;
8893;SDS011;4483;48.622;9.230;2023-07-30T09:38:26;1.00;;;1.00;;
8893;SDS011;4483;48.622;9.230;2023-07-30T09:40:59;1.20;;;1.20;;
8893;SDS011;4483;48.622;9.230;2023-07-30T09:43:28;2.65;;;1.27;;
8893;SDS011;4483;48.622;9.230;2023-07-30T09:45:57;1.25;;;1.25;;
8893;SDS011;4483;48.622;9.230;2023-07-30T09:48:28;1.40;;;1.40;;
8893;SDS011;4483;48.622;9.230;2023-07-30T09:50:56;1.20;;;1.20;;
8893;SDS011;4483;48.622;9.230;2023-07-30T09:53:23;1.30;;;1.30;;
8893;SDS011;4483;48.622;9.230;2023-07-30T09:55:54;1.33;;;1.27;;
8893;SDS011;4483;48.622;9.230;2023-07-30T09:58:21;1.50;;;1.50;;
8893;SDS011;4483;48.622;9.230;2023-07-30T10:00:47;1.40;;;1.30;;
8893;SDS011;4483;48.622;9.230;2023-07-30T10:03:16;1.40;;;1.30;;
8893;SDS011;4483;48.622;9.230;2023-07-30T10:05:43;1.10;;;1.10;;
8893;SDS011;4483;48.622;9.230;2023-07-30T10:08:14;1.13;;;1.10;;
8893;SDS011;4483;48.622;9.230;2023-07-30T10:10:47;1.80;;;1.48;;
8893;SDS011;4483;48.622;9.230;2023-07-30T10:13:14;1.23;;;1.23;;
8893;SDS011;4483;48.622;9.230;2023-07-30T10:15:43;1.75;;;1.10;;
8893;SDS011;4483;48.622;9.230;2023-07-30T10:18:10;1.10;;;1.10;;
8893;SDS011;4483;48.622;9.230;2023-07-30T10:20:39;1.33;;;1.25;;
8893;SDS011;4483;48.622;9.230;2023-07-30T10:23:19;2.15;;;1.23;;
8893;SDS011;4483;48.622;9.230;2023-07-30T10:25:48;1.40;;;1.30;;
8893;SDS011;4483;48.622;9.230;2023-07-30T10:28:26;1.50;;;1.40;;
8893;SDS011;4483;48.622;9.230;2023-07-30T10:30:57;1.50;;;1.40;;
8893;SDS011;4483;48.622;9.230;2023-07-30T10:36:12;1.50;;;1.35;;
8893;SDS011;4483;48.622;9.230;2023-07-30T10:38:39;1.42;;;1.33;;
8893;SDS011;4483;48.622;9.230;2023-07-30T10:41:09;1.33;;;1.20;;
8893;SDS011;4483;48.622;9.230;2023-07-30T10:43:42;1.52;;;1.42;;
8893;SDS011;4483;48.622;9.230;2023-07-30T10:46:10;1.35;;;1.35;;
8893;SDS011;4483;48.622;9.230;2023-07-30T10:48:39;1.20;;;1.20;;
8893;SDS011;4483;48.622;9.230;2023-07-30T10:51:08;1.77;;;1.67;;
8893;SDS011;4483;48.622;9.230;2023-07-30T10:53:36;1.70;;;1.35;;
8893;SDS011;4483;48.622;9.230;2023-07-30T10:56:04;1.88;;;1.60;;
8893;SDS011;4483;48.622;9.230;2023-07-30T10:58:34;1.50;;;1.50;;
8893;SDS011;4483;48.622;9.230;2023-07-30T11:01:02;1.60;;;1.50;;
8893;SDS011;4483;48.622;9.230;2023-07-30T11:03:30;1.60;;;1.50;;
8893;SDS011;4483;48.622;9.230;2023-07-30T11:05:58;2.33;;;1.40;;
8893;SDS011;4483;48.622;9.230;2023-07-30T11:08:34;1.60;;;1.50;;
8893;SDS011;4483;48.622;9.230;2023-07-30T11:11:03;1.67;;;1.58;;
8893;SDS011;4483;48.622;9.230;2023-07-30T11:13:36;1.45;;;1.35;;
8893;SDS011;4483;48.622;9.230;2023-07-30T11:16:04;1.35;;;1.35;;
8893;SDS011;4483;48.622;9.230;2023-07-30T11:18:31;1.85;;;1.50;;
8893;SDS011;4483;48.622;9.230;2023-07-30T11:21:02;1.85;;;1.60;;
8893;SDS011;4483;48.622;9.230;2023-07-30T11:23:29;2.78;;;1.48;;
8893;SDS011;4483;48.622;9.230;2023-07-30T11:25:56;1.95;;;1.65;;
8893;SDS011;4483;48.622;9.230;2023-07-30T11:28:29;1.25;;;1.20;;
8893;SDS011;4483;48.622;9.230;2023-07-30T11:30:59;1.80;;;1.60;;
8893;SDS011;4483;48.622;9.230;2023-07-30T11:33:27;1.50;;;1.33;;
8893;SDS011;4483;48.622;9.230;2023-07-30T11:35:55;1.52;;;1.35;;
8893;SDS011;4483;48.622;9.230;2023-07-30T11:38:23;1.88;;;1.77;;
8893;SDS011;4483;48.622;9.230;2023-07-30T11:40:52;1.45;;;1.38;;
8893;SDS011;4483;48.622;9.230;2023-07-30T11:43:19;2.25;;;1.42;;
8893;SDS011;4483;48.622;9.230;2023-07-30T11:45:47;1.90;;;1.70;;
8893;SDS011;4483;48.622;9.230;2023-07-30T11:48:15;2.30;;;1.80;;
8893;SDS011;4483;48.622;9.230;2023-07-30T11:50:45;1.60;;;1.50;;
8893;SDS011;4483;48.622;9.230;2023-07-30T11:53:13;1.38;;;1.35;;
8893;SDS011;4483;48.622;9.230;2023-07-30T11:55:42;1.70;;;1.60;;
8893;SDS011;4483;48.622;9.230;2023-07-30T11:58:12;3.45;;;1.92;;
8893;SDS011;4483;48.622;9.230;2023-07-30T12:00:40;1.75;;;1.65;;
8893;SDS011;4483;48.622;9.230;2023-07-30T12:03:21;1.30;;;1.20;;
8893;SDS011;4483;48.622;9.230;2023-07-30T12:05:48;3.17;;;2.30;;
8893;SDS011;4483;48.622;9.230;2023-07-30T12:08:16;1.98;;;1.83;;
8893;SDS011;4483;48.622;9.230;2023-07-30T12:10:57;2.38;;;1.58;;
8893;SDS011;4483;48.622;9.230;2023-07-30T12:13:29;1.77;;;1.67;;
8893;SDS011;4483;48.622;9.230;2023-07-30T12:15:56;1.58;;;1.48;;
8893;SDS011;4483;48.622;9.230;2023-07-30T12:18:26;3.53;;;1.30;;
8893;SDS011;4483;48.622;9.230;2023-07-30T12:20:54;1.42;;;1.42;;
8893;SDS011;4483;48.622;9.230;2023-07-30T12:23:21;2.80;;;1.75;;
8893;SDS011;4483;48.622;9.230;2023-07-30T12:25:48;1.42;;;1.33;;
8893;SDS011;4483;48.622;9.230;2023-07-30T12:28:16;1.55;;;1.50;;
8893;SDS011;4483;48.622;9.230;2023-07-30T12:30:43;2.75;;;1.48;;
8893;SDS011;4483;48.622;9.230;2023-07-30T12:33:09;1.70;;;1.60;;
8893;SDS011;4483;48.622;9.230;2023-07-30T12:35:38;2.17;;;1.80;;
8893;SDS011;4483;48.622;9.230;2023-07-30T12:38:07;2.80;;;1.33;;
8893;SDS011;4483;48.622;9.230;2023-07-30T12:40:33;4.15;;;1.50;;
8893;SDS011;4483;48.622;9.230;2023-07-30T12:43:01;1.98;;;1.50;;
8893;SDS011;4483;48.622;9.230;2023-07-30T12:45:28;1.67;;;1.58;;
8893;SDS011;4483;48.622;9.230;2023-07-30T12:47:57;2.20;;;1.40;;
8893;SDS011;4483;48.622;9.230;2023-07-30T12:50:23;2.72;;;1.60;;
8893;SDS011;4483;48.622;9.230;2023-07-30T12:52:53;1.92;;;1.48;;
8893;SDS011;4483;48.622;9.230;2023-07-30T12:55:20;1.58;;;1.52;;
8893;SDS011;4483;48.622;9.230;2023-07-30T12:57:46;1.30;;;1.30;;
8893;SDS011;4483;48.622;9.230;2023-07-30T13:00:13;1.83;;;1.73;;
8893;SDS011;4483;48.622;9.230;2023-07-30T13:02:40;1.92;;;1.73;;
8893;SDS011;4483;48.622;9.230;2023-07-30T13:05:07;1.90;;;1.55;;
8893;SDS011;4483;48.622;9.230;2023-07-30T13:07:34;1.63;;;1.52;;
8893;SDS011;4483;48.622;9.230;2023-07-30T13:10:03;1.80;;;1.58;;
8893;SDS011;4483;48.622;9.230;2023-07-30T13:12:31;4.03;;;1.60;;
8893;SDS011;4483;48.622;9.230;2023-07-30T13:14:57;2.78;;;1.45;;
8893;SDS011;4483;48.622;9.230;2023-07-30T13:17:24;6.22;;;1.80;;
8893;SDS011;4483;48.622;9.230;2023-07-30T13:19:51;1.80;;;1.70;;
8893;SDS011;4483;48.622;9.230;2023-07-30T13:22:17;1.42;;;1.40;;
8893;SDS011;4483;48.622;9.230;2023-07-30T13:24:44;3.47;;;1.58;;
8893;SDS011;4483;48.622;9.230;2023-07-30T13:27:12;1.60;;;1.50;;
8893;SDS011;4483;48.622;9.230;2023-07-30T13:29:39;1.73;;;1.65;;
8893;SDS011;4483;48.622;9.230;2023-07-30T13:32:05;1.35;;;1.27;;
8893;SDS011;4483;48.622;9.230;2023-07-30T13:34:32;1.65;;;1.45;;
8893;SDS011;4483;48.622;9.230;2023-07-30T13:36:59;2.33;;;1.70;;
8893;SDS011;4483;48.622;9.230;2023-07-30T13:39:26;1.70;;;1.60;;
8893;SDS011;4483;48.622;9.230;2023-07-30T13:41:53;1.50;;;1.40;;
8893;SDS011;4483;48.622;9.230;2023-07-30T13:44:21;1.40;;;1.40;;
8893;SDS011;4483;48.622;9.230;2023-07-30T13:46:47;1.98;;;1.88;;
8893;SDS011;4483;48.622;9.230;2023-07-30T13:49:15;1.92;;;1.70;;
8893;SDS011;4483;48.622;9.230;2023-07-30T13:51:42;3.17;;;1.83;;
8893;SDS011;4483;48.622;9.230;2023-07-30T13:54:08;1.98;;;1.83;;
8893;SDS011;4483;48.622;9.230;2023-07-30T13:56:35;2.50;;;1.65;;
8893;SDS011;4483;48.622;9.230;2023-07-30T13:59:03;2.65;;;1.55;;
8893;SDS011;4483;48.622;9.230;2023-07-30T14:01:31;1.80;;;1.70;;
8893;SDS011;4483;48.622;9.230;2023-07-30T14:03:58;2.33;;;1.50;;
8893;SDS011;4483;48.622;9.230;2023-07-30T14:06:25;1.67;;;1.58;;
8893;SDS011;4483;48.622;9.230;2023-07-30T14:08:51;1.55;;;1.50;;
8893;SDS011;4483;48.622;9.230;2023-07-30T14:11:18;3.30;;;1.60;;
8893;SDS011;4483;48.622;9.230;2023-07-30T14:13:45;1.77;;;1.65;;
8893;SDS011;4483;48.622;9.230;2023-07-30T14:16:11;1.45;;;1.35;;
8893;SDS011;4483;48.622;9.230;2023-07-30T14:18:40;1.92;;;1.40;;
8893;SDS011;4483;48.622;9.230;2023-07-30T14:21:06;1.90;;;1.70;;
8893;SDS011;4483;48.622;9.230;2023-07-30T14:23:33;1.52;;;1.38;;
8893;SDS011;4483;48.622;9.230;2023-07-30T14:25:59;1.73;;;1.50;;
8893;SDS011;4483;48.622;9.230;2023-07-30T14:28:26;1.63;;;1.52;;
8893;SDS011;4483;48.622;9.230;2023-07-30T14:30:53;1.50;;;1.40;;
8893;SDS011;4483;48.622;9.230;2023-07-30T14:33:19;2.00;;;1.80;;
8893;SDS011;4483;48.622;9.230;2023-07-30T14:35:47;2.13;;;1.40;;
8893;SDS011;4483;48.622;9.230;2023-07-30T14:38:14;1.77;;;1.50;;
8893;SDS011;4483;48.622;9.230;2023-07-30T14:40:42;3.20;;;1.50;;
8893;SDS011;4483;48.622;9.230;2023-07-30T14:43:08;2.67;;;1.50;;
8893;SDS011;4483;48.622;9.230;2023-07-30T14:45:35;2.00;;;1.85;;
8893;SDS011;4483;48.622;9.230;2023-07-30T14:48:02;1.52;;;1.42;;
8893;SDS011;4483;48.622;9.230;2023-07-30T14:50:29;1.35;;;1.33;;
8893;SDS011;4483;48.622;9.230;2023-07-30T14:52:57;1.58;;;1.27;;
8893;SDS011;4483;48.622;9.230;2023-07-30T14:55:23;1.63;;;1.52;;
8893;SDS011;4483;48.622;9.230;2023-07-30T14:57:50;1.35;;;1.25;;
8893;SDS011;4483;48.622;9.230;2023-07-30T15:00:17;1.45;;;1.35;;
8893;SDS011;4483;48.622;9.230;2023-07-30T15:02:43;1.70;;;1.58;;
8893;SDS011;4483;48.622;9.230;2023-07-30T15:05:10;1.73;;;1.40;;
8893;SDS011;4483;48.622;9.230;2023-07-30T15:07:37;1.50;;;1.40;;
8893;SDS011;4483;48.622;9.230;2023-07-30T15:10:05;3.00;;;1.83;;
8893;SDS011;4483;48.622;9.230;2023-07-30T15:12:33;1.65;;;1.27;;
8893;SDS011;4483;48.622;9.230;2023-07-30T15:15:00;8.68;;;1.40;;
8893;SDS011;4483;48.622;9.230;2023-07-30T15:17:27;4.43;;;1.30;;
8893;SDS011;4483;48.622;9.230;2023-07-30T15:19:53;1.20;;;1.15;;